Rancho El Gorguz, Mexico

1:11 AM MST on May 24, 2017 (GMT -0700)
Campo Santo Niño | | Change Station

Elev 407 ft 28.97 °N, 111.25 °W | Updated 1 second ago

Partly Cloudy
Partly Cloudy
70.1 °F
Feels Like 76 °F
N
0.0
Wind Variable Wind from North
Gusts 0.0 mph

Today
High -- | Low -- °F
--% Chance of Precip.
Yesterday
High -- | Low -- °F
Precip. -- in
Pressure 29.80 in
Visibility 10.0 miles
Clouds Scattered Clouds 20000 ft
Heat Index 76 °F
Dew Point 55 °F
Humidity 58%
Rainfall 0.00 in
Snow Depth Not available.
5:28 AM 7:14 PM
Waning Crescent, 3% visible
METAR MMHO 240742Z 00000KT 10SM SCT200 26/10 A2980 RMK 8/004 HZY
Pressure 29.80 in
Visibility 10.0 miles
Clouds Scattered Clouds 20000 ft
Heat Index 76 °F
Dew Point 55 °F
Humidity 58%
Rainfall 0.00 in
Snow Depth Not available.
5:28 AM 7:14 PM
Waning Crescent, 3% visible
METAR MMHO 240742Z 00000KT 10SM SCT200 26/10 A2980 RMK 8/004 HZY

Get Severe Weather Alerts

Thanks for signing up!

Be on the lookout for a verification email in your inbox.

You'll start receiving the daily forecast at 6 AM.

×

10-Day Weather Forecast

No radar image for this location.
×

Almanac

Astronomy

May. 24, 2017 Rise Set
Actual Time
Civil Twilight
Nautical Twilight
Astronomical Twilight
Moon
Length of Visible Light
Length of Day
Tomorrow will be .
, % of the Moon is Illuminated

Today's Extremes

Country Highs Country Lows

Community

WunderPhotos

Category 6

Welcome to Category 6. This is the collective home for Weather Underground's featured writeups by Dr. Jeff Masters (right), Bob Henson (left), Chris Burt, and other regular contributors.

Nearby

Air Quality

  Air Quality AQ Index Pollutant
Not available.

Snow Depth

Station Depth Elevation

Earthquake Activity

City Distance Mag. Time & Date
Minimum magnitude displayed is 2.5.

Coastal Water Temperatures

Place Temperature

Stations

Nearby Weather Stations

Station Location Temp. Windchill Dew Point Humidity Wind Precip. Elev Updated Type